sensor_id;sensor_type;location;lat;lon;timestamp;temperature;humidity
38854;DHT22;24606;51.992;4.198;2023-06-14T00:04:34;33.80;43.00
38854;DHT22;24606;51.992;4.198;2023-06-14T00:09:37;33.70;42.90
38854;DHT22;24606;51.992;4.198;2023-06-14T00:14:40;33.60;42.90
38854;DHT22;24606;51.992;4.198;2023-06-14T00:19:42;33.60;43.00
38854;DHT22;24606;51.992;4.198;2023-06-14T00:24:43;33.50;42.90
38854;DHT22;24606;51.992;4.198;2023-06-14T00:29:47;33.50;43.10
38854;DHT22;24606;51.992;4.198;2023-06-14T00:34:48;33.40;43.00
38854;DHT22;24606;51.992;4.198;2023-06-14T00:39:50;33.40;43.10
38854;DHT22;24606;51.992;4.198;2023-06-14T00:44:54;33.30;43.10
38854;DHT22;24606;51.992;4.198;2023-06-14T00:49:56;33.30;43.10
38854;DHT22;24606;51.992;4.198;2023-06-14T00:54:58;33.20;43.10
38854;DHT22;24606;51.992;4.198;2023-06-14T01:00:01;33.20;43.20
38854;DHT22;24606;51.992;4.198;2023-06-14T01:05:06;33.10;43.20
38854;DHT22;24606;51.992;4.198;2023-06-14T01:10:18;33.10;43.20
38854;DHT22;24606;51.992;4.198;2023-06-14T01:15:23;33.00;43.20
38854;DHT22;24606;51.992;4.198;2023-06-14T01:20:28;33.00;43.30
38854;DHT22;24606;51.992;4.198;2023-06-14T01:25:32;33.00;43.30
38854;DHT22;24606;51.992;4.198;2023-06-14T01:30:36;32.90;43.40
38854;DHT22;24606;51.992;4.198;2023-06-14T01:35:39;32.80;43.30
38854;DHT22;24606;51.992;4.198;2023-06-14T01:40:42;32.80;43.40
38854;DHT22;24606;51.992;4.198;2023-06-14T01:45:47;32.70;43.30
38854;DHT22;24606;51.992;4.198;2023-06-14T01:50:50;32.70;43.30
38854;DHT22;24606;51.992;4.198;2023-06-14T01:55:53;32.70;43.30
38854;DHT22;24606;51.992;4.198;2023-06-14T02:00:55;32.60;43.30
38854;DHT22;24606;51.992;4.198;2023-06-14T02:05:58;32.50;43.20
38854;DHT22;24606;51.992;4.198;2023-06-14T02:11:01;32.50;43.20
38854;DHT22;24606;51.992;4.198;2023-06-14T02:16:03;32.50;43.30
38854;DHT22;24606;51.992;4.198;2023-06-14T02:21:06;32.40;43.20
38854;DHT22;24606;51.992;4.198;2023-06-14T02:26:09;32.40;43.30
38854;DHT22;24606;51.992;4.198;2023-06-14T02:31:11;32.30;43.20
38854;DHT22;24606;51.992;4.198;2023-06-14T02:36:13;32.30;43.10
38854;DHT22;24606;51.992;4.198;2023-06-14T02:41:16;32.20;43.10
38854;DHT22;24606;51.992;4.198;2023-06-14T02:46:18;32.20;43.10
38854;DHT22;24606;51.992;4.198;2023-06-14T02:51:20;32.10;43.00
38854;DHT22;24606;51.992;4.198;2023-06-14T02:56:23;32.10;43.10
38854;DHT22;24606;51.992;4.198;2023-06-14T03:15:26;31.90;42.70
38854;DHT22;24606;51.992;4.198;2023-06-14T03:20:28;31.90;42.90
38854;DHT22;24606;51.992;4.198;2023-06-14T03:25:30;31.80;42.90
38854;DHT22;24606;51.992;4.198;2023-06-14T03:30:34;31.80;42.80
38854;DHT22;24606;51.992;4.198;2023-06-14T03:35:36;31.70;42.80
38854;DHT22;24606;51.992;4.198;2023-06-14T03:40:38;31.70;42.90
38854;DHT22;24606;51.992;4.198;2023-06-14T03:45:41;31.60;42.80
38854;DHT22;24606;51.992;4.198;2023-06-14T03:50:43;31.60;42.80
38854;DHT22;24606;51.992;4.198;2023-06-14T03:55:45;31.60;42.80
38854;DHT22;24606;51.992;4.198;2023-06-14T04:00:48;31.60;42.90
38854;DHT22;24606;51.992;4.198;2023-06-14T04:05:50;31.50;42.80
38854;DHT22;24606;51.992;4.198;2023-06-14T04:10:57;31.50;42.80
38854;DHT22;24606;51.992;4.198;2023-06-14T04:16:00;31.40;42.60
38854;DHT22;24606;51.992;4.198;2023-06-14T04:21:02;31.40;42.60
38854;DHT22;24606;51.992;4.198;2023-06-14T04:26:05;31.40;42.70
38854;DHT22;24606;51.992;4.198;2023-06-14T04:31:08;31.40;42.60
38854;DHT22;24606;51.992;4.198;2023-06-14T04:36:10;31.30;42.50
38854;DHT22;24606;51.992;4.198;2023-06-14T04:41:13;31.30;42.40
38854;DHT22;24606;51.992;4.198;2023-06-14T04:46:18;31.30;42.40
38854;DHT22;24606;51.992;4.198;2023-06-14T04:51:19;31.30;42.20
38854;DHT22;24606;51.992;4.198;2023-06-14T04:56:29;31.20;42.00
38854;DHT22;24606;51.992;4.198;2023-06-14T05:01:34;31.20;42.00
38854;DHT22;24606;51.992;4.198;2023-06-14T05:06:36;31.20;42.00
38854;DHT22;24606;51.992;4.198;2023-06-14T05:11:38;31.20;42.00
38854;DHT22;24606;51.992;4.198;2023-06-14T05:16:41;31.20;42.00
38854;DHT22;24606;51.992;4.198;2023-06-14T05:21:43;31.20;42.00
38854;DHT22;24606;51.992;4.198;2023-06-14T05:26:45;31.10;41.80
38854;DHT22;24606;51.992;4.198;2023-06-14T05:31:48;31.10;41.80
38854;DHT22;24606;51.992;4.198;2023-06-14T05:36:50;31.10;41.70
38854;DHT22;24606;51.992;4.198;2023-06-14T05:41:52;31.10;41.80
38854;DHT22;24606;51.992;4.198;2023-06-14T05:46:55;30.70;41.30
38854;DHT22;24606;51.992;4.198;2023-06-14T05:51:57;30.90;41.60
38854;DHT22;24606;51.992;4.198;2023-06-14T05:56:59;30.90;41.50
38854;DHT22;24606;51.992;4.198;2023-06-14T06:02:03;31.00;41.60
38854;DHT22;24606;51.992;4.198;2023-06-14T06:07:05;30.90;41.40
38854;DHT22;24606;51.992;4.198;2023-06-14T06:12:07;31.00;41.40
38854;DHT22;24606;51.992;4.198;2023-06-14T06:17:10;31.00;41.50
38854;DHT22;24606;51.992;4.198;2023-06-14T06:22:13;31.00;41.50
38854;DHT22;24606;51.992;4.198;2023-06-14T06:27:14;31.00;41.40
38854;DHT22;24606;51.992;4.198;2023-06-14T06:32:18;31.00;41.40
38854;DHT22;24606;51.992;4.198;2023-06-14T06:37:20;31.00;41.40
38854;DHT22;24606;51.992;4.198;2023-06-14T06:42:22;31.00;41.40
38854;DHT22;24606;51.992;4.198;2023-06-14T06:47:25;31.00;41.30
38854;DHT22;24606;51.992;4.198;2023-06-14T06:52:27;31.00;41.20
38854;DHT22;24606;51.992;4.198;2023-06-14T06:57:30;31.00;41.30
38854;DHT22;24606;51.992;4.198;2023-06-14T07:02:33;31.10;41.40
38854;DHT22;24606;51.992;4.198;2023-06-14T07:07:36;31.10;41.50
38854;DHT22;24606;51.992;4.198;2023-06-14T07:12:38;31.00;42.10
38854;DHT22;24606;51.992;4.198;2023-06-14T07:17:42;31.10;41.50
38854;DHT22;24606;51.992;4.198;2023-06-14T07:22:44;31.10;42.20
38854;DHT22;24606;51.992;4.198;2023-06-14T07:27:46;31.10;41.90
38854;DHT22;24606;51.992;4.198;2023-06-14T07:32:49;31.20;41.90
38854;DHT22;24606;51.992;4.198;2023-06-14T07:37:51;31.20;42.10
38854;DHT22;24606;51.992;4.198;2023-06-14T07:42:53;31.20;42.10
38854;DHT22;24606;51.992;4.198;2023-06-14T07:47:56;31.20;42.10
38854;DHT22;24606;51.992;4.198;2023-06-14T07:52:58;31.20;42.50
38854;DHT22;24606;51.992;4.198;2023-06-14T07:58:00;30.90;42.10
38854;DHT22;24606;51.992;4.198;2023-06-14T08:03:03;31.20;41.90
38854;DHT22;24606;51.992;4.198;2023-06-14T08:08:05;31.20;42.00
38854;DHT22;24606;51.992;4.198;2023-06-14T08:13:07;31.20;42.00
38854;DHT22;24606;51.992;4.198;2023-06-14T08:18:11;31.30;41.70
38854;DHT22;24606;51.992;4.198;2023-06-14T08:23:13;31.40;41.80
38854;DHT22;24606;51.992;4.198;2023-06-14T08:28:15;31.40;41.60
38854;DHT22;24606;51.992;4.198;2023-06-14T08:33:18;31.40;41.60
38854;DHT22;24606;51.992;4.198;2023-06-14T08:38:20;31.70;41.50
38854;DHT22;24606;51.992;4.198;2023-06-14T08:43:21;31.50;41.60
38854;DHT22;24606;51.992;4.198;2023-06-14T08:48:26;31.40;42.40
38854;DHT22;24606;51.992;4.198;2023-06-14T08:53:29;31.90;40.80
38854;DHT22;24606;51.992;4.198;2023-06-14T08:58:32;31.60;41.50
38854;DHT22;24606;51.992;4.198;2023-06-14T09:03:38;31.70;41.30
38854;DHT22;24606;51.992;4.198;2023-06-14T09:08:42;32.00;41.20
38854;DHT22;24606;51.992;4.198;2023-06-14T09:13:45;31.60;41.60
38854;DHT22;24606;51.992;4.198;2023-06-14T09:18:49;32.00;40.80
38854;DHT22;24606;51.992;4.198;2023-06-14T09:23:51;32.20;43.60
38854;DHT22;24606;51.992;4.198;2023-06-14T09:28:54;32.10;41.70
38854;DHT22;24606;51.992;4.198;2023-06-14T09:33:58;32.20;40.60
38854;DHT22;24606;51.992;4.198;2023-06-14T09:39:03;31.40;41.70
38854;DHT22;24606;51.992;4.198;2023-06-14T09:44:07;31.10;42.00
38854;DHT22;24606;51.992;4.198;2023-06-14T09:49:11;30.70;41.80
38854;DHT22;24606;51.992;4.198;2023-06-14T09:54:15;31.80;41.80
38854;DHT22;24606;51.992;4.198;2023-06-14T09:59:22;31.50;41.50
38854;DHT22;24606;51.992;4.198;2023-06-14T10:04:31;31.40;39.60
38854;DHT22;24606;51.992;4.198;2023-06-14T10:09:35;31.30;40.10
38854;DHT22;24606;51.992;4.198;2023-06-14T10:14:37;31.10;39.30
38854;DHT22;24606;51.992;4.198;2023-06-14T10:19:44;31.40;39.80
38854;DHT22;24606;51.992;4.198;2023-06-14T10:24:48;32.00;41.40
38854;DHT22;24606;51.992;4.198;2023-06-14T10:30:04;31.90;40.70
38854;DHT22;24606;51.992;4.198;2023-06-14T10:35:08;32.00;41.00
38854;DHT22;24606;51.992;4.198;2023-06-14T10:40:30;31.80;39.70
38854;DHT22;24606;51.992;4.198;2023-06-14T10:45:32;32.00;41.60
38854;DHT22;24606;51.992;4.198;2023-06-14T10:50:35;31.40;42.40
38854;DHT22;24606;51.992;4.198;2023-06-14T10:55:37;31.80;40.70
38854;DHT22;24606;51.992;4.198;2023-06-14T11:00:42;32.40;40.80
38854;DHT22;24606;51.992;4.198;2023-06-14T11:05:50;32.60;40.80
38854;DHT22;24606;51.992;4.198;2023-06-14T11:10:54;32.50;39.80
38854;DHT22;24606;51.992;4.198;2023-06-14T11:16:00;32.40;38.90
38854;DHT22;24606;51.992;4.198;2023-06-14T11:21:03;32.60;35.60
38854;DHT22;24606;51.992;4.198;2023-06-14T11:26:05;33.40;39.40
38854;DHT22;24606;51.992;4.198;2023-06-14T11:31:07;33.30;40.10
38854;DHT22;24606;51.992;4.198;2023-06-14T11:36:10;32.70;40.30
38854;DHT22;24606;51.992;4.198;2023-06-14T11:41:12;33.10;40.00
38854;DHT22;24606;51.992;4.198;2023-06-14T11:46:14;32.80;39.10
38854;DHT22;24606;51.992;4.198;2023-06-14T11:51:18;33.20;39.50
38854;DHT22;24606;51.992;4.198;2023-06-14T11:56:20;33.10;36.90
38854;DHT22;24606;51.992;4.198;2023-06-14T12:01:23;33.50;38.20
38854;DHT22;24606;51.992;4.198;2023-06-14T12:06:28;33.40;39.70
38854;DHT22;24606;51.992;4.198;2023-06-14T12:11:35;33.60;40.10
38854;DHT22;24606;51.992;4.198;2023-06-14T12:16:38;33.70;37.10
38854;DHT22;24606;51.992;4.198;2023-06-14T12:21:42;33.50;37.20
38854;DHT22;24606;51.992;4.198;2023-06-14T12:26:45;33.40;40.70
38854;DHT22;24606;51.992;4.198;2023-06-14T12:31:47;34.10;38.70
38854;DHT22;24606;51.992;4.198;2023-06-14T12:36:51;33.90;39.00
38854;DHT22;24606;51.992;4.198;2023-06-14T12:41:53;34.40;39.70
38854;DHT22;24606;51.992;4.198;2023-06-14T12:46:55;34.40;37.30
38854;DHT22;24606;51.992;4.198;2023-06-14T12:51:58;34.50;38.70
38854;DHT22;24606;51.992;4.198;2023-06-14T12:57:00;34.40;38.30
38854;DHT22;24606;51.992;4.198;2023-06-14T13:02:13;34.80;39.50
38854;DHT22;24606;51.992;4.198;2023-06-14T13:07:16;35.00;39.60
38854;DHT22;24606;51.992;4.198;2023-06-14T13:12:18;34.70;37.40
38854;DHT22;24606;51.992;4.198;2023-06-14T13:17:20;34.60;37.40
38854;DHT22;24606;51.992;4.198;2023-06-14T13:22:23;34.80;36.70
38854;DHT22;24606;51.992;4.198;2023-06-14T13:27:26;34.30;37.80
38854;DHT22;24606;51.992;4.198;2023-06-14T13:32:28;34.50;39.00
38854;DHT22;24606;51.992;4.198;2023-06-14T13:37:31;34.90;33.90
38854;DHT22;24606;51.992;4.198;2023-06-14T13:42:33;34.90;39.10
38854;DHT22;24606;51.992;4.198;2023-06-14T13:47:36;35.30;37.00
38854;DHT22;24606;51.992;4.198;2023-06-14T13:52:39;35.20;39.70
38854;DHT22;24606;51.992;4.198;2023-06-14T13:57:41;35.50;39.60
38854;DHT22;24606;51.992;4.198;2023-06-14T14:02:43;35.50;37.60
38854;DHT22;24606;51.992;4.198;2023-06-14T14:07:47;35.70;39.70
38854;DHT22;24606;51.992;4.198;2023-06-14T14:12:48;36.40;38.80
38854;DHT22;24606;51.992;4.198;2023-06-14T14:17:51;36.80;38.00
38854;DHT22;24606;51.992;4.198;2023-06-14T14:22:56;36.60;39.90
38854;DHT22;24606;51.992;4.198;2023-06-14T14:27:58;36.50;39.50
38854;DHT22;24606;51.992;4.198;2023-06-14T14:33:00;37.10;38.60
38854;DHT22;24606;51.992;4.198;2023-06-14T14:38:03;37.30;39.00
38854;DHT22;24606;51.992;4.198;2023-06-14T14:43:05;37.30;37.20
38854;DHT22;24606;51.992;4.198;2023-06-14T14:48:07;38.00;39.10
38854;DHT22;24606;51.992;4.198;2023-06-14T14:53:10;37.80;40.10
38854;DHT22;24606;51.992;4.198;2023-06-14T14:58:12;37.70;40.30
38854;DHT22;24606;51.992;4.198;2023-06-14T15:03:17;37.30;39.50
38854;DHT22;24606;51.992;4.198;2023-06-14T15:08:20;37.30;39.00
38854;DHT22;24606;51.992;4.198;2023-06-14T15:13:22;37.60;35.80
38854;DHT22;24606;51.992;4.198;2023-06-14T15:18:24;38.20;37.10
38854;DHT22;24606;51.992;4.198;2023-06-14T15:23:27;38.50;41.20
38854;DHT22;24606;51.992;4.198;2023-06-14T15:28:29;37.70;39.20
38854;DHT22;24606;51.992;4.198;2023-06-14T15:33:33;38.60;39.50
38854;DHT22;24606;51.992;4.198;2023-06-14T15:38:36;38.30;34.50
38854;DHT22;24606;51.992;4.198;2023-06-14T15:43:38;39.40;39.00
38854;DHT22;24606;51.992;4.198;2023-06-14T15:48:40;39.60;38.20
38854;DHT22;24606;51.992;4.198;2023-06-14T15:53:43;39.60;36.20
38854;DHT22;24606;51.992;4.198;2023-06-14T15:58:45;39.60;38.60
38854;DHT22;24606;51.992;4.198;2023-06-14T16:03:47;39.40;36.10
38854;DHT22;24606;51.992;4.198;2023-06-14T16:08:50;40.30;40.10
38854;DHT22;24606;51.992;4.198;2023-06-14T16:13:52;39.40;38.70
38854;DHT22;24606;51.992;4.198;2023-06-14T16:18:55;39.60;40.70
38854;DHT22;24606;51.992;4.198;2023-06-14T16:23:59;39.70;39.90
38854;DHT22;24606;51.992;4.198;2023-06-14T16:29:00;39.60;39.20
38854;DHT22;24606;51.992;4.198;2023-06-14T16:34:02;40.20;43.00
38854;DHT22;24606;51.992;4.198;2023-06-14T16:39:10;40.20;39.30
38854;DHT22;24606;51.992;4.198;2023-06-14T16:44:12;40.10;43.20
38854;DHT22;24606;51.992;4.198;2023-06-14T16:49:15;39.80;44.10
38854;DHT22;24606;51.992;4.198;2023-06-14T16:54:18;39.90;39.90
38854;DHT22;24606;51.992;4.198;2023-06-14T16:59:20;40.30;42.90
38854;DHT22;24606;51.992;4.198;2023-06-14T17:04:22;40.10;38.00
38854;DHT22;24606;51.992;4.198;2023-06-14T17:09:26;40.40;45.10
38854;DHT22;24606;51.992;4.198;2023-06-14T17:14:28;40.90;51.40
38854;DHT22;24606;51.992;4.198;2023-06-14T17:19:30;40.90;48.00
38854;DHT22;24606;51.992;4.198;2023-06-14T17:24:33;41.00;43.10
38854;DHT22;24606;51.992;4.198;2023-06-14T17:29:35;40.70;45.90
38854;DHT22;24606;51.992;4.198;2023-06-14T17:34:38;40.40;44.60
38854;DHT22;24606;51.992;4.198;2023-06-14T17:39:41;40.60;45.50
38854;DHT22;24606;51.992;4.198;2023-06-14T17:44:44;40.40;48.10
38854;DHT22;24606;51.992;4.198;2023-06-14T17:49:46;40.20;45.90
38854;DHT22;24606;51.992;4.198;2023-06-14T17:54:52;40.40;46.80
38854;DHT22;24606;51.992;4.198;2023-06-14T17:59:53;40.40;46.50
38854;DHT22;24606;51.992;4.198;2023-06-14T18:04:56;40.50;43.30
38854;DHT22;24606;51.992;4.198;2023-06-14T18:09:59;40.20;43.70
38854;DHT22;24606;51.992;4.198;2023-06-14T18:15:01;40.20;43.90
38854;DHT22;24606;51.992;4.198;2023-06-14T18:20:04;40.20;43.30
38854;DHT22;24606;51.992;4.198;2023-06-14T18:25:08;41.00;46.40
38854;DHT22;24606;51.992;4.198;2023-06-14T18:30:10;40.60;42.60
38854;DHT22;24606;51.992;4.198;2023-06-14T18:35:12;40.10;41.00
38854;DHT22;24606;51.992;4.198;2023-06-14T18:40:15;39.90;42.70
38854;DHT22;24606;51.992;4.198;2023-06-14T18:45:18;39.90;42.90
38854;DHT22;24606;51.992;4.198;2023-06-14T18:50:20;39.60;42.60
38854;DHT22;24606;51.992;4.198;2023-06-14T18:55:23;39.90;47.60
38854;DHT22;24606;51.992;4.198;2023-06-14T19:00:26;39.90;43.40
38854;DHT22;24606;51.992;4.198;2023-06-14T19:05:30;40.00;47.00
38854;DHT22;24606;51.992;4.198;2023-06-14T19:10:33;40.30;50.50
38854;DHT22;24606;51.992;4.198;2023-06-14T19:15:35;40.60;53.70
38854;DHT22;24606;51.992;4.198;2023-06-14T19:20:37;40.10;47.10
38854;DHT22;24606;51.992;4.198;2023-06-14T19:25:41;39.70;47.40
38854;DHT22;24606;51.992;4.198;2023-06-14T19:30:43;39.50;46.10
38854;DHT22;24606;51.992;4.198;2023-06-14T19:35:45;39.40;46.10
38854;DHT22;24606;51.992;4.198;2023-06-14T19:40:48;39.20;45.60
38854;DHT22;24606;51.992;4.198;2023-06-14T19:45:50;39.00;45.40
38854;DHT22;24606;51.992;4.198;2023-06-14T19:50:52;38.90;45.20
38854;DHT22;24606;51.992;4.198;2023-06-14T19:55:56;38.80;45.20
38854;DHT22;24606;51.992;4.198;2023-06-14T20:00:58;38.60;44.90
38854;DHT22;24606;51.992;4.198;2023-06-14T20:06:00;38.50;45.10
38854;DHT22;24606;51.992;4.198;2023-06-14T20:11:03;38.30;45.50
38854;DHT22;24606;51.992;4.198;2023-06-14T20:16:05;38.20;44.60
38854;DHT22;24606;51.992;4.198;2023-06-14T20:21:07;38.10;44.70
38854;DHT22;24606;51.992;4.198;2023-06-14T20:26:11;37.90;44.50
38854;DHT22;24606;51.992;4.198;2023-06-14T20:31:14;37.80;44.40
38854;DHT22;24606;51.992;4.198;2023-06-14T20:36:19;37.70;44.20
38854;DHT22;24606;51.992;4.198;2023-06-14T20:41:22;37.60;44.20
38854;DHT22;24606;51.992;4.198;2023-06-14T20:46:24;37.40;43.80
38854;DHT22;24606;51.992;4.198;2023-06-14T20:51:29;37.20;43.50
38854;DHT22;24606;51.992;4.198;2023-06-14T20:56:32;37.10;43.10
38854;DHT22;24606;51.992;4.198;2023-06-14T21:01:34;36.90;42.90
38854;DHT22;24606;51.992;4.198;2023-06-14T21:06:36;36.80;42.70
38854;DHT22;24606;51.992;4.198;2023-06-14T21:11:40;36.60;42.60
38854;DHT22;24606;51.992;4.198;2023-06-14T21:16:42;36.50;41.90
38854;DHT22;24606;51.992;4.198;2023-06-14T21:21:44;36.40;42.10
38854;DHT22;24606;51.992;4.198;2023-06-14T21:26:47;36.30;42.20
38854;DHT22;24606;51.992;4.198;2023-06-14T21:31:49;36.20;42.30
38854;DHT22;24606;51.992;4.198;2023-06-14T21:36:51;36.10;42.10
38854;DHT22;24606;51.992;4.198;2023-06-14T21:41:55;36.00;42.40
38854;DHT22;24606;51.992;4.198;2023-06-14T21:46:56;35.90;42.50
38854;DHT22;24606;51.992;4.198;2023-06-14T21:51:58;35.80;42.50
38854;DHT22;24606;51.992;4.198;2023-06-14T21:57:01;35.80;42.60
38854;DHT22;24606;51.992;4.198;2023-06-14T22:02:04;35.70;42.70
38854;DHT22;24606;51.992;4.198;2023-06-14T22:07:06;35.60;42.70
38854;DHT22;24606;51.992;4.198;2023-06-14T22:12:10;35.50;42.70
38854;DHT22;24606;51.992;4.198;2023-06-14T22:17:15;35.40;42.70
38854;DHT22;24606;51.992;4.198;2023-06-14T22:22:22;35.30;42.60
38854;DHT22;24606;51.992;4.198;2023-06-14T22:27:27;35.20;42.50
38854;DHT22;24606;51.992;4.198;2023-06-14T22:32:30;35.10;42.50
38854;DHT22;24606;51.992;4.198;2023-06-14T22:37:33;35.00;42.60
38854;DHT22;24606;51.992;4.198;2023-06-14T22:42:39;35.00;42.50
38854;DHT22;24606;51.992;4.198;2023-06-14T22:47:46;34.90;42.50
38854;DHT22;24606;51.992;4.198;2023-06-14T22:52:48;34.80;42.50
38854;DHT22;24606;51.992;4.198;2023-06-14T22:57:52;34.70;42.50
38854;DHT22;24606;51.992;4.198;2023-06-14T23:02:54;34.60;42.30
38854;DHT22;24606;51.992;4.198;2023-06-14T23:07:57;34.60;43.00
38854;DHT22;24606;51.992;4.198;2023-06-14T23:13:00;34.50;42.40
38854;DHT22;24606;51.992;4.198;2023-06-14T23:18:03;34.40;42.50
38854;DHT22;24606;51.992;4.198;2023-06-14T23:23:06;34.30;42.50
38854;DHT22;24606;51.992;4.198;2023-06-14T23:28:09;34.20;42.40
38854;DHT22;24606;51.992;4.198;2023-06-14T23:33:11;34.20;42.50
38854;DHT22;24606;51.992;4.198;2023-06-14T23:38:13;34.10;42.40
38854;DHT22;24606;51.992;4.198;2023-06-14T23:43:17;34.10;42.60
38854;DHT22;24606;51.992;4.198;2023-06-14T23:48:20;34.00;42.40
38854;DHT22;24606;51.992;4.198;2023-06-14T23:53:22;33.90;42.30
38854;DHT22;24606;51.992;4.198;2023-06-14T23:58:26;33.90;42.40
